createdAt,value
2019-04-25T00:02:16.607Z,10.70
2019-04-25T00:04:45.614Z,10.87
2019-04-25T00:07:14.575Z,10.97
2019-04-25T00:09:53.696Z,10.50
2019-04-25T00:12:23.145Z,10.60
2019-04-25T00:14:52.259Z,10.87
2019-04-25T00:17:21.799Z,10.63
2019-04-25T00:19:51.063Z,10.97
2019-04-25T00:22:42.559Z,11.17
2019-04-25T00:25:31.414Z,11.10
2019-04-25T00:28:01.800Z,10.70
2019-04-25T00:30:32.362Z,11.50
2019-04-25T00:33:02.031Z,11.17
2019-04-25T00:35:31.550Z,11.03
2019-04-25T00:38:02.248Z,11.43
2019-04-25T00:40:31.889Z,11.70
2019-04-25T00:43:01.576Z,11.53
2019-04-25T00:45:31.736Z,12.23
2019-04-25T00:48:04.001Z,12.17
2019-04-25T00:50:31.983Z,12.10
2019-04-25T00:53:01.272Z,12.53
2019-04-25T00:55:31.433Z,12.30
2019-04-25T00:58:06.715Z,12.60
2019-04-25T01:01:12.649Z,12.33
2019-04-25T01:03:43.271Z,11.73
2019-04-25T01:06:12.552Z,11.87
2019-04-25T01:08:41.567Z,12.30
2019-04-25T01:11:11.509Z,14.53
2019-04-25T01:13:42.175Z,13.60
2019-04-25T01:16:11.993Z,13.83
2019-04-25T01:18:41.057Z,13.13
2019-04-25T01:21:10.015Z,13.60
2019-04-25T01:23:39.024Z,13.90
2019-04-25T01:26:08.178Z,13.93
2019-04-25T01:28:37.197Z,12.90
2019-04-25T01:31:07.823Z,13.00
2019-04-25T01:33:36.848Z,13.50
2019-04-25T01:36:27.903Z,12.40
2019-04-25T01:39:05.395Z,12.20
2019-04-25T01:41:41.652Z,12.80
2019-04-25T01:44:24.134Z,12.97
2019-04-25T01:46:54.484Z,13.20
2019-04-25T01:49:23.995Z,12.63
2019-04-25T01:51:54.451Z,13.07
2019-04-25T01:54:23.856Z,13.20
2019-04-25T01:56:53.587Z,12.30
2019-04-25T01:59:23.793Z,12.80
2019-04-25T02:01:56.721Z,11.83
2019-04-25T02:04:25.751Z,12.37
2019-04-25T02:06:55.624Z,13.10
2019-04-25T02:09:25.553Z,13.00
2019-04-25T02:12:06.507Z,13.20
2019-04-25T02:14:35.706Z,13.27
2019-04-25T02:17:04.815Z,12.60
2019-04-25T02:19:35.562Z,12.27
2019-04-25T02:22:04.502Z,12.10
2019-04-25T02:24:33.955Z,11.77
2019-04-25T02:27:04.558Z,11.67
2019-04-25T02:29:33.680Z,12.00
2019-04-25T02:32:08.856Z,12.23
2019-04-25T02:34:34.836Z,11.50
2019-04-25T02:37:08.662Z,12.30
2019-04-25T02:39:37.257Z,12.33
2019-04-25T02:42:08.133Z,12.43
2019-04-25T02:44:38.245Z,11.97
2019-04-25T02:47:35.369Z,11.40
2019-04-25T02:50:34.389Z,11.93
2019-04-25T02:53:30.829Z,11.43
2019-04-25T02:55:59.859Z,11.57
2019-04-25T02:58:28.908Z,12.20
2019-04-25T03:01:08.256Z,11.83
2019-04-25T03:03:29.343Z,11.33
2019-04-25T03:05:59.666Z,11.17
2019-04-25T03:08:29.087Z,12.53
2019-04-25T03:10:58.822Z,12.00
2019-04-25T03:13:28.747Z,12.73
2019-04-25T03:15:58.691Z,12.93
2019-04-25T03:18:30.000Z,12.90
2019-04-25T03:21:13.473Z,12.97
2019-04-25T03:23:42.803Z,12.90
2019-04-25T03:26:13.543Z,12.97
2019-04-25T03:28:43.860Z,12.77
2019-04-25T03:31:18.737Z,13.00
2019-04-25T03:33:45.956Z,12.60
2019-04-25T03:36:16.835Z,14.00
2019-04-25T03:38:44.838Z,13.20
2019-04-25T03:41:14.760Z,13.50
2019-04-25T03:43:44.208Z,12.97
2019-04-25T03:46:14.246Z,13.47
2019-04-25T03:48:44.116Z,12.93
2019-04-25T03:51:15.389Z,13.73
2019-04-25T03:53:43.959Z,13.77
2019-04-25T03:56:14.483Z,13.67
2019-04-25T03:58:44.001Z,14.47
2019-04-25T04:01:14.975Z,14.00
2019-04-25T04:03:44.054Z,15.20
2019-04-25T04:06:15.237Z,16.17
2019-04-25T04:08:44.280Z,15.33
2019-04-25T04:11:14.608Z,14.47
2019-04-25T04:13:44.163Z,14.33
2019-04-25T04:16:14.677Z,15.33
2019-04-25T04:18:46.066Z,15.83
2019-04-25T04:21:37.145Z,16.33
2019-04-25T04:24:16.086Z,16.90
2019-04-25T04:27:06.640Z,16.07
2019-04-25T04:29:34.762Z,15.77
2019-04-25T04:32:03.752Z,16.33
2019-04-25T04:34:33.759Z,15.70
2019-04-25T04:37:03.716Z,16.47
2019-04-25T04:39:33.872Z,15.53
2019-04-25T04:42:03.807Z,15.67
2019-04-25T04:44:34.326Z,15.17
2019-04-25T04:47:04.017Z,14.70
2019-04-25T04:49:34.113Z,15.43
2019-04-25T04:52:06.146Z,15.33
2019-04-25T04:54:34.453Z,15.10
2019-04-25T04:57:16.873Z,23.20
2019-04-25T04:59:34.160Z,24.43
2019-04-25T05:02:20.390Z,16.43
2019-04-25T05:05:14.804Z,15.73
2019-04-25T05:07:48.060Z,14.07
2019-04-25T05:10:18.666Z,14.80
2019-04-25T05:12:47.828Z,18.03
2019-04-25T05:15:17.919Z,16.10
2019-04-25T05:17:47.406Z,14.47
2019-04-25T05:20:17.605Z,15.87
2019-04-25T05:22:47.068Z,14.83
2019-04-25T05:25:17.478Z,12.80
2019-04-25T05:27:59.578Z,12.63
2019-04-25T05:30:23.965Z,11.90
2019-04-25T05:32:54.243Z,11.80
2019-04-25T05:35:24.348Z,11.60
2019-04-25T05:37:54.234Z,12.00
2019-04-25T05:40:24.430Z,12.70
2019-04-25T05:43:09.559Z,11.60
2019-04-25T05:45:38.523Z,13.47
2019-04-25T05:48:07.614Z,12.87
2019-04-25T05:50:36.594Z,12.73
2019-04-25T05:53:05.608Z,12.10
2019-04-25T05:55:34.561Z,12.60
2019-04-25T05:58:03.971Z,12.50
2019-04-25T06:00:34.006Z,12.30
2019-04-25T06:03:03.696Z,14.50
2019-04-25T06:05:33.514Z,13.20
2019-04-25T06:08:04.348Z,13.40
2019-04-25T06:10:53.832Z,14.73
2019-04-25T06:13:40.185Z,12.67
2019-04-25T06:16:14.149Z,12.77
2019-04-25T06:19:14.285Z,11.53
2019-04-25T06:21:39.095Z,11.17
2019-04-25T06:24:24.339Z,13.87
2019-04-25T06:27:15.369Z,12.20
2019-04-25T06:29:57.591Z,11.73
2019-04-25T06:32:16.790Z,11.00
2019-04-25T06:34:45.891Z,10.40
2019-04-25T06:37:14.862Z,11.10
2019-04-25T06:39:47.047Z,11.00
2019-04-25T06:42:16.114Z,10.03
2019-04-25T06:45:06.155Z,10.53
2019-04-25T06:47:53.991Z,11.13
2019-04-25T06:50:24.536Z,10.57
2019-04-25T06:52:53.765Z,10.47
2019-04-25T06:55:23.664Z,9.27
2019-04-25T06:57:54.014Z,9.67
2019-04-25T07:00:26.260Z,9.60
2019-04-25T07:02:53.821Z,10.77
2019-04-25T07:05:30.557Z,10.53
2019-04-25T07:07:53.699Z,9.93
2019-04-25T07:10:24.164Z,9.17
2019-04-25T07:12:54.383Z,9.83
2019-04-25T07:15:25.636Z,9.60
2019-04-25T07:17:54.406Z,9.67
2019-04-25T07:20:26.109Z,9.13
2019-04-25T07:22:54.147Z,9.80
2019-04-25T07:25:26.315Z,9.30
2019-04-25T07:28:28.403Z,8.70
2019-04-25T07:31:13.338Z,8.77
2019-04-25T07:33:47.582Z,9.20
2019-04-25T07:36:16.603Z,8.87
2019-04-25T07:38:45.634Z,9.30
2019-04-25T07:41:16.229Z,9.53
2019-04-25T07:43:45.449Z,9.20
2019-04-25T07:46:14.520Z,10.83
2019-04-25T07:48:43.916Z,8.27
2019-04-25T07:51:16.170Z,8.73
2019-04-25T07:53:43.718Z,8.10
2019-04-25T07:56:14.223Z,8.33
2019-04-25T07:58:50.506Z,9.03
2019-04-25T08:01:15.230Z,9.40
2019-04-25T08:03:44.579Z,9.57
2019-04-25T08:06:13.928Z,8.80
2019-04-25T08:08:43.639Z,8.83
2019-04-25T08:11:14.069Z,8.43
2019-04-25T08:13:51.154Z,8.60
2019-04-25T08:16:21.311Z,8.73
2019-04-25T08:18:50.818Z,8.77
2019-04-25T08:21:19.795Z,8.50
2019-04-25T08:23:49.566Z,8.27
2019-04-25T08:26:18.623Z,8.07
2019-04-25T08:28:55.037Z,7.87
2019-04-25T08:31:18.411Z,7.80
2019-04-25T08:33:47.503Z,7.87
2019-04-25T08:36:16.503Z,7.93
2019-04-25T08:38:45.467Z,7.87
2019-04-25T08:41:14.506Z,8.37
2019-04-25T08:43:45.367Z,7.63
2019-04-25T08:46:14.147Z,7.20
2019-04-25T08:49:06.446Z,7.00
2019-04-25T08:51:37.855Z,7.20
2019-04-25T08:54:13.771Z,7.40
2019-04-25T08:56:43.969Z,7.10
2019-04-25T08:59:36.213Z,8.20
2019-04-25T09:02:10.870Z,7.63
2019-04-25T09:04:58.959Z,6.90
2019-04-25T09:07:27.911Z,7.27
2019-04-25T09:09:56.915Z,7.07
2019-04-25T09:12:25.879Z,6.97
2019-04-25T09:14:54.871Z,6.93
2019-04-25T09:17:24.293Z,6.80
2019-04-25T09:19:54.240Z,7.07
2019-04-25T09:22:24.236Z,6.60
2019-04-25T09:24:54.029Z,7.30
2019-04-25T09:27:23.507Z,7.27
2019-04-25T09:29:54.134Z,7.10
2019-04-25T09:32:23.887Z,7.53
2019-04-25T09:34:54.447Z,7.50
2019-04-25T09:37:24.596Z,6.73
2019-04-25T09:40:04.323Z,6.80
2019-04-25T09:42:33.812Z,6.90
2019-04-25T09:45:28.874Z,7.10
2019-04-25T09:48:00.764Z,6.60
2019-04-25T09:50:49.663Z,7.10
2019-04-25T09:53:23.601Z,6.50
2019-04-25T09:56:04.171Z,6.93
2019-04-25T09:58:40.073Z,6.50
2019-04-25T10:01:11.491Z,6.70
2019-04-25T10:03:40.937Z,6.30
2019-04-25T10:06:09.962Z,6.80
2019-04-25T10:08:39.019Z,6.70
2019-04-25T10:11:08.100Z,10.67
2019-04-25T10:13:37.574Z,6.80
2019-04-25T10:16:09.666Z,6.10
2019-04-25T10:18:39.266Z,6.43
2019-04-25T10:21:11.216Z,7.13
2019-04-25T10:23:41.719Z,6.60
2019-04-25T10:26:12.225Z,6.30
2019-04-25T10:28:41.785Z,7.73
2019-04-25T10:31:13.668Z,8.37
2019-04-25T10:33:45.300Z,8.53
2019-04-25T10:36:14.447Z,6.10
2019-04-25T10:38:46.304Z,6.40
2019-04-25T10:41:14.506Z,7.10
2019-04-25T10:43:44.022Z,7.13
2019-04-25T10:46:14.153Z,8.53
2019-04-25T10:48:43.980Z,7.50
2019-04-25T10:51:13.847Z,7.00
2019-04-25T10:53:45.449Z,5.70
2019-04-25T10:56:14.210Z,7.43
2019-04-25T10:58:44.425Z,7.47
2019-04-25T11:01:15.325Z,6.63
2019-04-25T11:04:04.730Z,6.07
2019-04-25T11:06:34.488Z,6.60
2019-04-25T11:09:03.576Z,5.93
2019-04-25T11:11:34.227Z,6.07
2019-04-25T11:14:03.401Z,6.40
2019-04-25T11:16:33.374Z,6.10
2019-04-25T11:19:02.466Z,7.03
2019-04-25T11:21:33.218Z,5.30
2019-04-25T11:24:02.090Z,6.00
2019-04-25T11:26:31.245Z,6.30
2019-04-25T11:29:00.316Z,7.47
2019-04-25T11:31:33.979Z,13.73
2019-04-25T11:34:03.595Z,6.10
2019-04-25T11:36:33.896Z,5.57
2019-04-25T11:39:34.182Z,6.50
2019-04-25T11:42:04.431Z,5.23
2019-04-25T11:44:34.970Z,5.83
2019-04-25T11:47:06.917Z,5.90
2019-04-25T11:49:34.930Z,5.60
2019-04-25T11:52:05.272Z,6.00
2019-04-25T11:54:34.482Z,4.87
2019-04-25T11:57:03.699Z,5.40
2019-04-25T11:59:34.122Z,6.30
2019-04-25T12:02:13.464Z,5.20
2019-04-25T12:04:45.221Z,5.60
2019-04-25T12:07:14.317Z,4.90
2019-04-25T12:09:45.794Z,5.47
2019-04-25T12:12:14.619Z,4.90
2019-04-25T12:14:45.078Z,6.70
2019-04-25T12:17:14.460Z,5.40
2019-04-25T12:19:43.471Z,6.37
2019-04-25T12:22:13.581Z,7.13
2019-04-25T12:24:44.497Z,5.57
2019-04-25T12:27:13.747Z,7.13
2019-04-25T12:29:44.008Z,5.20
2019-04-25T12:32:14.170Z,4.57
2019-04-25T12:34:43.465Z,5.00
2019-04-25T12:37:12.551Z,5.40
2019-04-25T12:39:41.569Z,5.50
2019-04-25T12:42:10.595Z,5.07
2019-04-25T12:45:07.294Z,5.40
2019-04-25T12:47:38.931Z,5.43
2019-04-25T12:50:08.138Z,5.97
2019-04-25T12:52:37.148Z,4.97
2019-04-25T12:55:08.819Z,4.93
2019-04-25T12:57:37.775Z,5.10
2019-04-25T13:00:06.980Z,4.73
2019-04-25T13:02:36.632Z,5.07
2019-04-25T13:05:06.980Z,4.40
2019-04-25T13:07:36.220Z,5.40
2019-04-25T13:10:05.819Z,4.73
2019-04-25T13:12:34.860Z,4.93
2019-04-25T13:15:03.920Z,4.63
2019-04-25T13:17:33.910Z,5.50
2019-04-25T13:20:04.084Z,6.07
2019-04-25T13:22:34.803Z,7.43
2019-04-25T13:25:05.678Z,6.97
2019-04-25T13:27:53.824Z,5.43
2019-04-25T13:31:01.386Z,4.63
2019-04-25T13:33:39.881Z,4.83
2019-04-25T13:36:11.480Z,5.10
2019-04-25T13:38:40.547Z,5.30
2019-04-25T13:41:09.550Z,5.33
2019-04-25T13:43:38.586Z,5.27
2019-04-25T13:46:07.534Z,4.70
2019-04-25T13:48:36.603Z,4.90
2019-04-25T13:51:05.601Z,5.10
2019-04-25T13:53:34.561Z,5.23
2019-04-25T13:56:04.889Z,5.83
2019-04-25T13:58:34.333Z,6.97
2019-04-25T14:01:12.965Z,6.03
2019-04-25T14:03:35.650Z,5.50
2019-04-25T14:06:04.851Z,5.77
2019-04-25T14:08:34.248Z,5.50
2019-04-25T14:11:04.960Z,5.63
2019-04-25T14:13:33.919Z,5.90
2019-04-25T14:16:13.775Z,5.57
2019-04-25T14:19:02.760Z,5.73
2019-04-25T14:21:33.424Z,6.20
2019-04-25T14:24:02.576Z,6.37
2019-04-25T14:26:31.695Z,5.97
2019-04-25T14:29:00.729Z,6.27
2019-04-25T14:31:41.260Z,6.37
2019-04-25T14:34:00.311Z,7.77
2019-04-25T14:36:30.236Z,5.57
2019-04-25T14:38:59.311Z,5.70
2019-04-25T14:41:28.265Z,5.70
2019-04-25T14:43:57.527Z,5.47
2019-04-25T14:46:26.614Z,6.30
2019-04-25T14:48:55.591Z,7.47
2019-04-25T14:51:24.531Z,5.90
2019-04-25T14:53:53.675Z,5.63
2019-04-25T14:56:30.379Z,6.50
2019-04-25T14:58:59.328Z,5.73
2019-04-25T15:01:28.378Z,5.93
2019-04-25T15:03:57.470Z,5.30
2019-04-25T15:06:27.589Z,5.40
2019-04-25T15:08:56.667Z,5.60
2019-04-25T15:11:25.628Z,5.47
2019-04-25T15:13:54.629Z,5.90
2019-04-25T15:16:24.649Z,5.30
2019-04-25T15:18:53.606Z,5.83
2019-04-25T15:21:22.553Z,5.40
2019-04-25T15:24:00.123Z,5.90
2019-04-25T15:26:22.136Z,5.17
2019-04-25T15:28:51.207Z,5.27
2019-04-25T15:31:20.204Z,5.23
2019-04-25T15:33:49.367Z,5.37
2019-04-25T15:36:49.431Z,5.70
2019-04-25T15:39:43.522Z,6.00
2019-04-25T15:42:40.647Z,5.63
2019-04-25T15:45:37.691Z,5.57
2019-04-25T15:48:07.551Z,7.13
2019-04-25T15:50:36.604Z,5.60
2019-04-25T15:53:05.694Z,5.83
2019-04-25T15:55:34.786Z,6.13
2019-04-25T15:58:04.057Z,6.20
2019-04-25T16:00:36.868Z,5.97
2019-04-25T16:03:06.515Z,5.93
2019-04-25T16:05:36.051Z,6.23
2019-04-25T16:08:06.098Z,6.57
2019-04-25T16:10:35.145Z,6.00
2019-04-25T16:13:04.240Z,6.53
2019-04-25T16:15:33.300Z,7.13
2019-04-25T16:18:02.416Z,6.87
2019-04-25T16:20:31.505Z,7.03
2019-04-25T16:23:00.475Z,7.17
2019-04-25T16:25:29.932Z,7.00
2019-04-25T16:27:58.970Z,7.83
2019-04-25T16:30:31.170Z,7.30
2019-04-25T16:33:00.269Z,7.67
2019-04-25T16:35:29.830Z,7.20
2019-04-25T16:37:58.828Z,7.90
2019-04-25T16:40:28.713Z,7.37
2019-04-25T16:42:58.996Z,8.23
2019-04-25T16:45:28.942Z,7.67
2019-04-25T16:47:58.919Z,7.90
2019-04-25T16:50:29.064Z,7.90
2019-04-25T16:52:59.039Z,7.97
2019-04-25T16:55:28.077Z,7.93
2019-04-25T16:57:57.063Z,7.30
2019-04-25T17:00:43.663Z,7.10
2019-04-25T17:03:14.067Z,7.77
2019-04-25T17:05:43.246Z,7.07
2019-04-25T17:08:12.351Z,6.97
2019-04-25T17:10:41.669Z,7.90
2019-04-25T17:13:10.791Z,7.43
2019-04-25T17:16:10.708Z,8.40
2019-04-25T17:19:04.395Z,8.60
2019-04-25T17:21:34.626Z,9.33
2019-04-25T17:24:04.274Z,9.37
2019-04-25T17:26:33.221Z,8.37
2019-04-25T17:29:04.865Z,7.83
2019-04-25T17:31:50.359Z,8.83
2019-04-25T17:34:32.524Z,9.50
2019-04-25T17:37:14.055Z,9.30
2019-04-25T17:39:44.807Z,8.93
2019-04-25T17:42:13.862Z,9.37
2019-04-25T17:44:42.875Z,9.63
2019-04-25T17:47:11.923Z,8.00
2019-04-25T17:49:40.867Z,8.30
2019-04-25T17:52:09.862Z,8.93
2019-04-25T17:54:38.951Z,8.60
2019-04-25T17:57:08.036Z,8.60
2019-04-25T17:59:37.018Z,9.37
2019-04-25T18:02:05.999Z,10.73
2019-04-25T18:04:35.396Z,8.80
2019-04-25T18:07:04.585Z,9.17
2019-04-25T18:09:34.445Z,9.70
2019-04-25T18:12:04.639Z,9.37
2019-04-25T18:14:34.062Z,9.80
2019-04-25T18:17:04.240Z,10.27
2019-04-25T18:19:57.961Z,10.00
2019-04-25T18:22:58.131Z,10.63
2019-04-25T18:25:41.951Z,10.70
2019-04-25T18:28:24.434Z,10.00
2019-04-25T18:30:53.735Z,9.40
2019-04-25T18:33:28.364Z,10.30
2019-04-25T18:36:16.936Z,9.17
2019-04-25T18:38:55.871Z,9.67
2019-04-25T18:41:38.610Z,9.33
2019-04-25T18:44:07.846Z,10.37
2019-04-25T18:46:39.198Z,10.13
2019-04-25T18:49:08.174Z,10.10
2019-04-25T18:51:37.280Z,11.80
2019-04-25T18:54:28.599Z,10.80
2019-04-25T18:57:19.381Z,9.87
2019-04-25T18:59:59.361Z,9.77
2019-04-25T19:02:46.080Z,10.67
2019-04-25T19:05:49.019Z,9.73
2019-04-25T19:08:18.096Z,14.73
2019-04-25T19:10:47.180Z,10.37
2019-04-25T19:13:16.180Z,9.90
2019-04-25T19:15:45.217Z,10.67
2019-04-25T19:18:14.304Z,10.50
2019-04-25T19:20:43.992Z,10.53
2019-04-25T19:23:13.013Z,11.63
2019-04-25T19:25:41.991Z,11.43
2019-04-25T19:28:10.995Z,10.63
2019-04-25T19:30:40.998Z,10.63
2019-04-25T19:33:10.119Z,10.57
2019-04-25T19:35:40.393Z,11.13
2019-04-25T19:38:09.832Z,11.23
2019-04-25T19:40:57.829Z,10.83
2019-04-25T19:43:30.942Z,11.37
2019-04-25T19:45:59.955Z,11.77
2019-04-25T19:48:29.591Z,11.97
2019-04-25T19:50:58.563Z,13.07
2019-04-25T19:53:27.527Z,10.67
2019-04-25T19:55:56.543Z,10.73
2019-04-25T19:58:25.531Z,10.50
2019-04-25T20:00:54.548Z,11.73
2019-04-25T20:03:49.191Z,11.60
2019-04-25T20:06:28.388Z,14.00
2019-04-25T20:09:02.628Z,15.30
2019-04-25T20:11:41.115Z,14.77
2019-04-25T20:14:10.147Z,11.53
2019-04-25T20:16:43.415Z,11.97
2019-04-25T20:19:13.005Z,11.53
2019-04-25T20:21:41.985Z,11.80
2019-04-25T20:24:10.977Z,11.70
2019-04-25T20:26:39.955Z,12.07
2019-04-25T20:29:08.973Z,11.27
2019-04-25T20:31:38.000Z,11.97
2019-04-25T20:34:06.967Z,11.70
2019-04-25T20:36:36.014Z,11.90
2019-04-25T20:39:06.542Z,13.03
2019-04-25T20:41:35.518Z,11.87
2019-04-25T20:44:04.630Z,12.40
2019-04-25T20:46:33.595Z,13.03
2019-04-25T20:49:02.635Z,12.90
2019-04-25T20:51:31.591Z,16.03
2019-04-25T20:54:00.610Z,14.77
2019-04-25T20:56:29.578Z,15.20
2019-04-25T20:58:58.546Z,13.73
2019-04-25T21:01:27.559Z,14.27
2019-04-25T21:03:56.515Z,14.53
2019-04-25T21:06:29.796Z,13.93
2019-04-25T21:08:58.819Z,13.53
2019-04-25T21:11:27.783Z,12.87
2019-04-25T21:14:14.486Z,12.43
2019-04-25T21:17:02.937Z,12.07
2019-04-25T21:19:34.162Z,11.40
2019-04-25T21:22:03.155Z,11.07
2019-04-25T21:24:32.202Z,9.83
2019-04-25T21:27:01.215Z,10.83
2019-04-25T21:29:30.190Z,9.27
2019-04-25T21:31:59.296Z,8.93
2019-04-25T21:34:30.386Z,8.03
2019-04-25T21:36:59.735Z,8.33
2019-04-25T21:39:38.513Z,7.80
2019-04-25T21:42:26.896Z,8.70
2019-04-25T21:44:56.113Z,9.63
2019-04-25T21:47:25.178Z,8.77
2019-04-25T21:49:54.518Z,9.23
2019-04-25T21:52:23.834Z,9.40
2019-04-25T21:54:53.137Z,9.60
2019-04-25T21:57:22.414Z,8.93
2019-04-25T22:00:00.207Z,9.43
2019-04-25T22:02:22.579Z,10.03
2019-04-25T22:04:51.730Z,9.70
2019-04-25T22:07:20.904Z,10.03
2019-04-25T22:09:50.107Z,10.70
2019-04-25T22:12:19.430Z,9.43
2019-04-25T22:14:48.395Z,9.00
2019-04-25T22:17:17.400Z,8.13
2019-04-25T22:19:46.553Z,8.17
2019-04-25T22:22:15.663Z,9.00
2019-04-25T22:24:44.654Z,8.13
2019-04-25T22:27:19.901Z,7.43
2019-04-25T22:29:53.210Z,7.00
2019-04-25T22:32:38.231Z,6.90
2019-04-25T22:35:13.301Z,6.77
2019-04-25T22:37:42.204Z,6.33
2019-04-25T22:40:11.633Z,6.47
2019-04-25T22:42:40.578Z,6.37
2019-04-25T22:45:09.603Z,7.40
2019-04-25T22:47:38.500Z,7.10
2019-04-25T22:50:07.441Z,7.83
2019-04-25T22:52:36.807Z,7.40
2019-04-25T22:55:06.278Z,8.93
2019-04-25T22:57:35.503Z,8.63
2019-04-25T23:00:05.198Z,8.23
2019-04-25T23:02:40.005Z,8.50
2019-04-25T23:05:16.510Z,7.33
2019-04-25T23:07:45.663Z,6.80
2019-04-25T23:10:14.998Z,6.90
2019-04-25T23:12:44.040Z,7.10
2019-04-25T23:15:13.148Z,7.17
2019-04-25T23:17:42.054Z,6.30
2019-04-25T23:20:11.774Z,5.60
2019-04-25T23:22:40.834Z,6.40
2019-04-25T23:25:11.986Z,6.33
2019-04-25T23:28:06.423Z,6.57
2019-04-25T23:30:53.410Z,6.60
2019-04-25T23:33:22.416Z,6.43
2019-04-25T23:35:51.719Z,6.50
2019-04-25T23:38:20.670Z,6.27
2019-04-25T23:40:49.679Z,6.27
2019-04-25T23:43:18.954Z,7.27
2019-04-25T23:45:47.936Z,6.73
2019-04-25T23:48:16.996Z,7.57
2019-04-25T23:50:46.008Z,8.33
2019-04-25T23:53:15.061Z,8.03
2019-04-25T23:55:43.974Z,8.70
2019-04-25T23:58:13.477Z,8.33
